Data for 08/22/2018

Time Sea-Level Adjusted Pressure Absolute Pressure Temperature Relative Humidity Dew Point   
(mb) (inHg) (mb) (inHg) (C) (F) (%) (C) (F)
00:05 1025 30.27 855 25.25 11 51.8 73 6.3 43.4
00:10 1025 30.27 855 25.25 11 51.7 73 6.3 43.4
00:15 1025 30.27 855 25.25 10.9 51.7 73 6.3 43.4
00:20 1025 30.27 855 25.25 10.9 51.7 73 6.3 43.4
00:25 1025 30.27 854 25.22 10.9 51.6 73 6.3 43.4
00:30 1025 30.27 854 25.22 10.9 51.6 73 6.3 43.4
00:35 1025 30.27 854 25.22 10.9 51.6 74 6.4 43.5
00:40 1025 30.27 854 25.22 10.8 51.5 74 6.4 43.6
00:45 1025 30.27 854 25.22 10.9 51.6 74 6.4 43.6
00:50 1025 30.27 854 25.22 10.9 51.5 75 6.5 43.8
00:55 1025 30.27 854 25.22 10.8 51.4 75 6.5 43.7
01:00 1025 30.27 854 25.22 10.8 51.4 75 6.6 43.8
01:05 1025 30.27 854 25.22 10.8 51.4 75 6.5 43.8
01:10 1025 30.27 854 25.22 10.8 51.4 75 6.6 43.9
01:15 1025 30.27 854 25.22 10.8 51.4 75 6.6 43.9
01:20 1025 30.27 854 25.22 10.8 51.4 76 6.6 44
01:25 1025 30.27 854 25.22 10.8 51.4 75 6.6 43.9
01:30 1025 30.27 854 25.22 10.8 51.4 76 6.7 44
01:35 1025 30.27 854 25.22 10.8 51.4 76 6.7 44
01:40 1025 30.27 854 25.22 10.8 51.4 76 6.7 44.1
01:45 1025 30.27 854 25.22 10.8 51.4 75 6.6 44
01:50 1025 30.27 854 25.22 10.8 51.4 76 6.8 44.2
01:55 1025 30.27 854 25.22 10.8 51.4 76 6.8 44.2
02:00 1025 30.27 854 25.22 10.7 51.3 77 6.8 44.3
02:05 1025 30.27 854 25.22 10.7 51.2 77 6.8 44.2
02:10 1025 30.27 854 25.22 10.7 51.2 77 6.8 44.2
02:15 1025 30.27 854 25.22 10.7 51.2 77 6.8 44.2
02:20 1025 30.27 854 25.22 10.7 51.3 77 6.8 44.2
02:25 1025 30.27 854 25.22 10.7 51.3 77 6.9 44.4
02:30 1025 30.27 854 25.22 10.7 51.2 77 6.8 44.3
02:35 1025 30.27 854 25.22 10.7 51.2 77 6.8 44.2
02:40 1025 30.27 854 25.22 10.7 51.3 77 6.8 44.3
02:45 1025 30.27 854 25.22 10.8 51.4 77 6.8 44.3
02:50 1025 30.27 854 25.22 10.8 51.4 76 6.8 44.2
02:55 1025 30.27 854 25.22 10.8 51.5 76 6.7 44.1
03:00 1025 30.27 854 25.22 10.8 51.5 77 6.9 44.4
03:05 1025 30.27 854 25.22 10.8 51.4 77 6.9 44.4
03:10 1025 30.27 854 25.22 10.7 51.3 77 6.9 44.4
03:15 1025 30.27 854 25.22 10.7 51.3 77 6.9 44.4
03:20 1025 30.27 854 25.22 10.7 51.3 77 6.8 44.3
03:25 1025 30.27 854 25.22 10.8 51.4 77 7 44.6
03:30 1024 30.24 854 25.22 10.7 51.3 78 7 44.6
03:35 1024 30.24 853 25.19 10.7 51.3 75 6.5 43.6
03:40 1024 30.24 853 25.19 10.9 51.5 71 5.9 42.6
03:45 1024 30.24 854 25.22 11.1 51.9 71 5.9 42.7
03:50 1024 30.24 854 25.22 11.1 52.1 73 6.6 43.8
03:55 1024 30.24 853 25.19 11 51.9 73 6.5 43.7
04:00 1024 30.24 853 25.19 11.1 51.9 73 6.5 43.7
04:05 1024 30.24 853 25.19 11.1 51.9 72 6.3 43.4
04:10 1024 30.24 853 25.19 11 51.8 74 6.6 44
04:15 1024 30.24 853 25.19 10.9 51.5 75 6.6 44
04:20 1024 30.24 853 25.19 10.8 51.4 75 6.5 43.7
04:25 1024 30.24 853 25.19 10.8 51.4 74 6.3 43.3
04:30 1024 30.24 853 25.19 10.9 51.5 73 6.2 43.1
04:35 1024 30.24 853 25.19 10.9 51.6 74 6.4 43.5
04:40 1024 30.24 853 25.19 10.8 51.4 75 6.5 43.6
04:45 1024 30.24 853 25.19 10.7 51.2 75 6.4 43.6
04:50 1024 30.24 853 25.19 10.7 51.2 75 6.4 43.6
04:55 1024 30.24 853 25.19 10.6 51.1 74 6.2 43.1
05:00 1024 30.24 853 25.19 10.6 51 74 6.1 43
05:05 1024 30.24 853 25.19 10.6 51.1 74 6.1 43
05:10 1024 30.24 853 25.19 10.5 50.9 73 6 42.7
05:15 1024 30.24 853 25.19 10.5 50.9 73 6 42.8
05:20 1024 30.24 853 25.19 10.6 51 73 6 42.8
05:25 1024 30.24 853 25.19 10.5 50.9 74 6 42.9
05:30 1024 30.24 853 25.19 10.5 50.8 74 6 42.7
05:35 1024 30.24 853 25.19 10.5 50.8 74 6.1 42.9
05:40 1024 30.24 853 25.19 10.5 50.9 74 6.1 42.9
05:45 1024 30.24 853 25.19 10.5 50.8 73 5.9 42.6
05:50 1024 30.24 853 25.19 10.4 50.7 73 5.9 42.6
05:55 1024 30.24 853 25.19 10.4 50.7 74 5.9 42.6
06:00 1024 30.24 853 25.19 10.3 50.6 75 6.1 43
06:05 1024 30.24 853 25.19 10.2 50.3 75 6 42.7
06:10 1024 30.24 853 25.19 10.2 50.4 75 6 42.9
06:15 1024 30.24 853 25.19 10.1 50.1 75 5.9 42.7
06:20 1024 30.24 853 25.19 10 50.1 75 5.8 42.5
06:25 1024 30.24 853 25.19 10.1 50.1 75 5.9 42.6
06:30 1024 30.24 853 25.19 10.3 50.5 74 5.8 42.5
06:35 1024 30.24 853 25.19 10.4 50.8 74 6 42.7
06:40 1024 30.24 853 25.19 10.5 50.8 74 6.1 42.9
06:45 1024 30.24 853 25.19 10.3 50.5 75 6.1 43
06:50 1024 30.24 853 25.19 9.9 49.8 76 5.9 42.7
06:55 1024 30.24 853 25.19 9.8 49.7 76 5.9 42.6
07:00 1024 30.24 853 25.19 9.8 49.6 77 5.9 42.6
07:05 1024 30.24 853 25.19 9.8 49.6 77 5.9 42.6
07:10 1024 30.24 853 25.19 9.8 49.6 76 5.9 42.5
07:15 1024 30.24 853 25.19 9.7 49.5 77 5.9 42.6
07:20 1024 30.24 853 25.19 9.7 49.5 76 5.8 42.5
07:25 1024 30.24 853 25.19 9.8 49.7 75 5.7 42.3
07:30 1024 30.24 853 25.19 10 50 75 5.7 42.3
07:35 1024 30.24 853 25.19 10 49.9 75 5.7 42.3
07:40 1024 30.24 853 25.19 10 50 74 5.7 42.2
07:45 1024 30.24 853 25.19 10 50 75 5.7 42.3
07:50 1024 30.24 853 25.19 10 49.9 74 5.6 42.1
07:55 1024 30.24 853 25.19 9.9 49.8 74 5.5 42
08:00 1024 30.24 853 25.19 9.9 49.9 74 5.6 42.1
08:05 1024 30.24 853 25.19 10 50 74 5.7 42.2
08:10 1024 30.24 853 25.19 10.1 50.3 73 5.6 42
08:15 1024 30.24 853 25.19 10.3 50.6 73 5.8 42.5
08:20 1024 30.24 853 25.19 10.5 50.8 73 5.9 42.6
08:25 1024 30.24 853 25.19 10.1 50.2 75 5.8 42.5
08:30 1024 30.24 853 25.19 10.2 50.3 74 5.8 42.4
08:35 1024 30.24 853 25.19 10.2 50.4 73 5.7 42.2
08:40 1023 30.21 853 25.19 10.3 50.6 74 5.8 42.5
08:45 1023 30.21 853 25.19 10.5 50.9 72 5.7 42.3
08:50 1023 30.21 853 25.19 10.6 51 72 5.8 42.5
08:55 1023 30.21 852 25.16 10.6 51.1 72 5.7 42.3
09:00 1023 30.21 852 25.16 10.7 51.2 72 5.8 42.4
09:05 1023 30.21 852 25.16 11 51.8 71 5.9 42.7
09:10 1023 30.21 852 25.16 11.3 52.3 70 6.1 42.9
09:15 1023 30.21 852 25.16 11.4 52.6 70 6.1 43
09:20 1023 30.21 853 25.19 11.5 52.8 69 6.1 42.9
09:25 1023 30.21 853 25.19 12 53.6 67 6 42.9
09:30 1023 30.21 853 25.19 12.2 53.9 67 6.2 43.2
09:35 1023 30.21 853 25.19 12.5 54.5 64 5.9 42.6
09:40 1023 30.21 853 25.19 13.2 55.7 62 6.2 43.2
09:45 1023 30.21 853 25.19 13.1 55.6 64 6.4 43.6
09:50 1023 30.21 853 25.19 13.2 55.7 62 6.1 43.1
09:55 1023 30.21 852 25.16 13.3 55.9 62 6.2 43.1
10:00 1023 30.21 852 25.16 12.9 55.2 65 6.4 43.6
10:05 1023 30.21 852 25.16 13.2 55.7 61 6 42.7
10:10 1023 30.21 852 25.16 13.7 56.7 61 6.3 43.3
10:15 1023 30.21 852 25.16 13.6 56.5 61 6.4 43.5
10:20 1023 30.21 852 25.16 14.1 57.5 59 6.3 43.3
10:25 1023 30.21 852 25.16 14.3 57.7 59 6.4 43.5
10:30 1023 30.21 852 25.16 14.4 58 60 6.7 44.1
10:35 1023 30.21 852 25.16 14.8 58.6 58 6.5 43.8
10:40 1023 30.21 852 25.16 15.3 59.5 56 6.6 44
10:45 1023 30.21 852 25.16 15 59 58 6.9 44.4
10:50 1023 30.21 852 25.16 15 59 58 6.9 44.4
10:55 1023 30.21 852 25.16 14.8 58.7 57 6.5 43.7
11:00 1023 30.21 852 25.16 15.1 59.2 56 6.5 43.6
11:05 1023 30.21 852 25.16 15 59.1 58 6.8 44.3
11:10 1023 30.21 852 25.16 15.3 59.5 55 6.4 43.6
11:15 1023 30.21 852 25.16 15.4 59.6 56 6.7 44
11:20 1023 30.21 852 25.16 15.4 59.7 56 6.7 44.1
11:25 1022 30.18 852 25.16 15.5 59.8 56 6.8 44.2
11:30 1022 30.18 852 25.16 15.5 60 56 6.8 44.3
11:35 1022 30.18 852 25.16 15.5 59.9 57 7 44.6
11:40 1022 30.18 852 25.16 15 59 57 6.7 44
11:45 1022 30.18 852 25.16 15.2 59.4 59 7.4 45.3
11:50 1022 30.18 852 25.16 15 59.1 57 6.7 44.1
11:55 1022 30.18 851 25.13 15 59.1 57 6.7 44.1
12:00 1022 30.18 851 25.13 15.7 60.2 55 6.7 44
12:05 1022 30.18 851 25.13 16.5 61.8 52 6.9 44.4
12:10 1022 30.18 851 25.13 16.6 61.9 53 7.1 44.7
12:15 1022 30.18 851 25.13 16.5 61.6 53 7.1 44.7
12:20 1022 30.18 851 25.13 16.6 61.8 52 6.9 44.4
12:25 1022 30.18 851 25.13 17.3 63.1 49 6.7 44
12:30 1022 30.18 851 25.13 17.2 63 52 7.3 45.1
12:35 1022 30.18 851 25.13 17.6 63.7 49 7 44.5
12:40 1022 30.18 851 25.13 16.8 62.3 53 7.3 45.2
12:45 1022 30.18 851 25.13 16.9 62.3 52 7.2 44.9
12:50 1021 30.15 851 25.13 16.9 62.5 51 6.9 44.4
12:55 1021 30.15 850 25.1 17.7 63.9 49 7 44.6
13:00 1021 30.15 850 25.1 17.8 64 51 7.6 45.6
13:05 1021 30.15 850 25.1 18.1 64.7 49 7.4 45.3
13:10 1021 30.15 850 25.1 18.3 65 49 7.5 45.5
13:15 1021 30.15 850 25.1 18.5 65.4 48 7.4 45.4
13:20 1021 30.15 850 25.1 19.2 66.5 45 7.2 45
13:25 1021 30.15 850 25.1 19.3 66.7 47 7.8 46
13:30 1021 30.15 850 25.1 19.6 67.3 46 7.7 45.9
13:35 1021 30.15 850 25.1 20.1 68.2 43 7.3 45.2
13:40 1021 30.15 850 25.1 20.4 68.7 41 6.8 44.2
13:45 1021 30.15 850 25.1 20.3 68.6 42 7.2 44.9
13:50 1021 30.15 850 25.1 20.6 69 43 7.5 45.6
13:55 1021 30.15 850 25.1 21 69.9 42 7.8 46
14:00 1021 30.15 850 25.1 20.6 69.2 43 7.9 46.3
14:05 1021 30.15 850 25.1 20.3 68.5 45 8.1 46.6
14:10 1020 30.12 850 25.1 19.5 67.1 46 7.8 46
14:15 1021 30.15 850 25.1 20.4 68.6 44 8 46.4
14:20 1020 30.12 850 25.1 20.7 69.2 45 8.4 47.2
14:25 1020 30.12 850 25.1 20.6 69.1 44 7.9 46.3
14:30 1020 30.12 850 25.1 20.6 69 44 8.2 46.7
14:35 1020 30.12 850 25.1 19.9 67.8 47 8.3 47
14:40 1020 30.12 849 25.07 19.8 67.7 46 7.9 46.3
14:45 1020 30.12 849 25.07 20.1 68.2 46 8.2 46.8
14:50 1020 30.12 849 25.07 19.3 66.7 47 7.8 46.1
14:55 1020 30.12 849 25.07 19.4 66.9 46 7.6 45.7
15:00 1020 30.12 849 25.07 19.9 67.8 43 7.2 44.9
15:05 1020 30.12 849 25.07 20.3 68.6 43 7.3 45.2
15:10 1020 30.12 849 25.07 20 68.1 43 7.4 45.2
15:15 1020 30.12 849 25.07 20.5 68.9 40 6.8 44.2
15:20 1020 30.12 849 25.07 20.5 68.9 42 7.4 45.3
15:25 1020 30.12 849 25.07 20.3 68.6 43 7.4 45.3
15:30 1020 30.12 849 25.07 20.3 68.6 44 7.7 45.9
15:35 1020 30.12 849 25.07 20.6 69 42 7.2 45
15:40 1020 30.12 849 25.07 20.6 69 42 7.5 45.5
15:45 1019 30.09 849 25.07 20.5 68.8 42 7.2 45
15:50 1019 30.09 849 25.07 20.5 68.9 42 7.3 45.1
15:55 1019 30.09 848 25.04 21 69.8 39 6.6 43.9
16:00 1019 30.09 848 25.04 21.6 70.9 36 6.2 43.1
16:05 1019 30.09 848 25.04 22 71.6 36 6.4 43.6
16:10 1019 30.09 848 25.04 22.2 71.9 35 6.3 43.3
16:15 1019 30.09 848 25.04 22.1 71.9 36 6.5 43.7
16:20 1019 30.09 848 25.04 22.2 71.9 34 6 42.7
16:25 1019 30.09 848 25.04 22.6 72.7 32 5.4 41.8
16:30 1019 30.09 848 25.04 22.8 73.1 32 5.4 41.7
16:35 1019 30.09 848 25.04 23.2 73.8 32 5.8 42.4
16:40 1019 30.09 848 25.04 23.4 74.1 32 6.2 43.1
16:45 1019 30.09 848 25.04 23.1 73.6 31 5.4 41.6
16:50 1018 30.06 848 25.04 23.2 73.7 29 4.4 39.9
16:55 1018 30.06 848 25.04 23.3 73.9 30 4.8 40.6
17:00 1018 30.06 847 25.01 23.3 73.9 31 5.2 41.4
17:05 1018 30.06 847 25.01 23.4 74 29 4.6 40.3
17:10 1018 30.06 847 25.01 23.5 74.3 31 5.5 42
17:15 1018 30.06 847 25.01 24.1 75.3 27 4.3 39.7
17:20 1018 30.06 847 25.01 24.1 75.3 28 4.5 40
17:25 1018 30.06 847 25.01 24 75.2 29 5.1 41.3
17:30 1018 30.06 847 25.01 24.2 75.6 30 5.8 42.5
17:35 1018 30.06 847 25.01 23.9 75.1 30 5.4 41.8
17:40 1018 30.06 847 25.01 23.3 74 30 5.2 41.4
17:45 1018 30.06 847 25.01 23.3 73.9 30 4.8 40.6
17:50 1018 30.06 847 25.01 23.7 74.6 33 6.7 44.1
17:55 1018 30.06 847 25.01 23.3 74 34 6.6 43.9
18:00 1018 30.06 847 25.01 22.5 72.5 35 6.6 43.9
18:05 1018 30.06 847 25.01 22.2 72 36 6.8 44.2
18:10 1018 30.06 847 25.01 22.1 71.8 36 6.3 43.4
18:15 1018 30.06 847 25.01 22 71.7 37 7 44.6
18:20 1018 30.06 847 25.01 22.1 71.8 36 6.5 43.8
18:25 1018 30.06 847 25.01 22.1 71.8 39 7.7 45.8
18:30 1018 30.06 847 25.01 21.7 71 38 7.1 44.8
18:35 1018 30.06 847 25.01 21.7 71 35 5.7 42.2
18:40 1018 30.06 847 25.01 21.4 70.6 37 6.5 43.6
18:45 1018 30.06 847 25.01 21 69.9 38 6.4 43.6
18:50 1018 30.06 847 25.01 20.6 69.1 41 7.1 44.8
18:55 1018 30.06 847 25.01 20.1 68.2 43 7.2 45
19:00 1018 30.06 847 25.01 19.9 67.8 40 6 42.8
19:05 1018 30.06 847 25.01 20.2 68.3 36 4.8 40.6
19:10 1018 30.06 847 25.01 20.5 68.8 34 4.3 39.7
19:15 1018 30.06 847 25.01 20.6 69.1 34 4.3 39.7
19:20 1018 30.06 847 25.01 20.7 69.2 37 5.8 42.5
19:25 1018 30.06 847 25.01 19.9 67.9 39 5.6 42.1
19:30 1018 30.06 847 25.01 19.9 67.8 38 5.4 41.6
19:35 1018 30.06 847 25.01 19.8 67.6 42 6.6 43.8
19:40 1018 30.06 847 25.01 19.5 67 40 5.8 42.4
19:45 1018 30.06 847 25.01 19.6 67.3 40 5.7 42.2
19:50 1018 30.06 847 25.01 19.7 67.4 40 6 42.8
19:55 1018 30.06 847 25.01 19.8 67.6 37 4.7 40.4
20:00 1018 30.06 847 25.01 19.9 67.9 39 5.7 42.2
20:05 1018 30.06 847 25.01 19.6 67.2 42 6.3 43.3
20:10 1018 30.06 847 25.01 19.2 66.6 44 6.6 44
20:15 1018 30.06 847 25.01 19.1 66.3 43 6.4 43.5
20:20 1018 30.06 847 25.01 19 66.1 43 6.4 43.5
20:25 1018 30.06 847 25.01 18.8 65.9 43 6.2 43.1
20:30 1018 30.06 847 25.01 18.6 65.6 46 6.8 44.2
20:35 1018 30.06 847 25.01 18.5 65.3 46 6.9 44.4
20:40 1018 30.06 847 25.01 18.5 65.2 47 6.9 44.5
20:45 1018 30.06 847 25.01 18.4 65.2 44 5.9 42.7
20:50 1018 30.06 847 25.01 18.4 65.2 44 6.1 43
20:55 1018 30.06 847 25.01 18.2 64.7 44 5.9 42.5
21:00 1018 30.06 847 25.01 17.9 64.2 44 5.6 42.2
21:05 1018 30.06 847 25.01 17.5 63.6 47 6.3 43.3
21:10 1018 30.06 847 25.01 17.2 62.9 48 6.2 43.1
21:15 1018 30.06 847 25.01 17 62.7 48 6.1 43
21:20 1018 30.06 847 25.01 16.9 62.4 49 6.3 43.4
21:25 1018 30.06 847 25.01 16.7 62 52 6.8 44.2
21:30 1018 30.06 847 25.01 16.5 61.7 52 6.7 44
21:35 1018 30.06 847 25.01 16.4 61.6 51 6.4 43.6
21:40 1018 30.06 847 25.01 16.4 61.6 50 6.1 42.9
21:45 1018 30.06 847 25.01 16.5 61.7 50 6.1 42.9
21:50 1018 30.06 847 25.01 16.5 61.6 50 6 42.8
21:55 1018 30.06 847 25.01 16.3 61.4 51 6.2 43.2
22:00 1018 30.06 847 25.01 16.1 60.9 52 6.3 43.3
22:05 1018 30.06 847 25.01 16 60.7 52 6.1 43.1
22:10 1018 30.06 847 25.01 16.1 60.9 51 6 42.8
22:15 1018 30.06 847 25.01 16.1 61 50 5.9 42.5
22:20 1018 30.06 847 25.01 16.2 61.1 50 5.9 42.6
22:25 1018 30.06 847 25.01 16.1 60.9 51 6 42.9
22:30 1018 30.06 847 25.01 15.8 60.5 52 6 42.8
22:35 1018 30.06 847 25.01 15.3 59.6 56 6.6 43.9
22:40 1018 30.06 847 25.01 15 58.9 54 5.8 42.4
22:45 1018 30.06 847 25.01 15.3 59.6 51 5.3 41.6
22:50 1018 30.06 847 25.01 15.5 59.9 51 5.5 42
22:55 1018 30.06 847 25.01 15.4 59.8 51 5.5 41.9
23:00 1018 30.06 847 25.01 15.2 59.4 51 5.4 41.6
23:05 1018 30.06 847 25.01 15.3 59.5 51 5.2 41.4
23:10 1018 30.06 847 25.01 15.1 59.3 54 6 42.8
23:15 1018 30.06 847 25.01 14.6 58.2 56 5.9 42.7
23:20 1018 30.06 847 25.01 14.4 57.9 57 6 42.8
23:25 1018 30.06 847 25.01 14.2 57.6 57 5.9 42.6
23:30 1018 30.06 847 25.01 14.2 57.6 57 5.8 42.5
23:35 1018 30.06 848 25.04 14.3 57.8 57 5.9 42.6
23:40 1018 30.06 848 25.04 14.5 58 57 6 42.8
23:45 1018 30.06 848 25.04 14.6 58.2 57 6.2 43.2
23:50 1018 30.06 848 25.04 14.4 57.9 58 6.3 43.3
23:55 1018 30.06 848 25.04 14.3 57.8 58 6.2 43.2
24:00 1018 30.06 848 25.04 14.3 57.7 57 6 42.8